HAZ2814 ZGGG-ZHHH
Flight info
| Callsign | HAZ2814 |
|---|---|
| Flight time | 1h 27m |
| Altitude | 26600 |
| Route | MIKIP9 MIKIP A461 BUBDA/K0802S0780 W56 REBIS/K0787S0750 W56 UPMAT UPMAT4T |
| Aircraft | A321/M-SDE3FGHIRWY/LB1 |
Departure
| Time | 2026-05-08 14:57 |
|---|---|
| Airport | Guangzhou Baiyun International Airport (ZGGG) |
Arrival
| Time | 2026-05-08 16:24 |
|---|---|
| Airport | Wuhan Tianhe International Airport (ZHHH) |
| Time | Latitude | Longitude | Altitude | Speed | Heading |
|---|---|---|---|---|---|
| 2026-05-08 14:40 | 23.40060 | 113.30646 | 54 ft | 0 kts | 1° |
| 2026-05-08 14:46 | 23.40043 | 113.30645 | 51 ft | 4 kts | 1° |
| 2026-05-08 14:47 | 23.40016 | 113.30645 | 50 ft | 3 kts | 1° |
| 2026-05-08 14:47 | 23.39991 | 113.30641 | 51 ft | 4 kts | 30° |
| 2026-05-08 14:47 | 23.39975 | 113.30622 | 52 ft | 4 kts | 86° |
| 2026-05-08 14:47 | 23.39976 | 113.30600 | 50 ft | 4 kts | 94° |
| 2026-05-08 14:48 | 23.39978 | 113.30580 | 52 ft | 0 kts | 94° |
| 2026-05-08 14:50 | 23.39974 | 113.30612 | 50 ft | 8 kts | 98° |
| 2026-05-08 14:50 | 23.39954 | 113.30704 | 51 ft | 16 kts | 104° |
| 2026-05-08 14:50 | 23.39874 | 113.30757 | 54 ft | 14 kts | 186° |
| 2026-05-08 14:51 | 23.39774 | 113.30730 | 54 ft | 16 kts | 194° |
| 2026-05-08 14:51 | 23.39664 | 113.30698 | 54 ft | 16 kts | 195° |
| 2026-05-08 14:51 | 23.39550 | 113.30666 | 54 ft | 19 kts | 194° |
| 2026-05-08 14:51 | 23.39403 | 113.30627 | 54 ft | 23 kts | 194° |
| 2026-05-08 14:52 | 23.39248 | 113.30585 | 54 ft | 23 kts | 194° |
| 2026-05-08 14:52 | 23.38952 | 113.30505 | 54 ft | 21 kts | 194° |
| 2026-05-08 14:52 | 23.38811 | 113.30467 | 52 ft | 21 kts | 193° |
| 2026-05-08 14:53 | 23.38670 | 113.30430 | 54 ft | 22 kts | 194° |
| 2026-05-08 14:53 | 23.38506 | 113.30384 | 54 ft | 25 kts | 194° |
| 2026-05-08 14:53 | 23.38337 | 113.30339 | 54 ft | 25 kts | 194° |
| 2026-05-08 14:53 | 23.38172 | 113.30294 | 54 ft | 24 kts | 194° |
| 2026-05-08 14:54 | 23.38011 | 113.30251 | 52 ft | 23 kts | 194° |
| 2026-05-08 14:54 | 23.37854 | 113.30208 | 51 ft | 23 kts | 194° |
| 2026-05-08 14:54 | 23.37745 | 113.30195 | 54 ft | 14 kts | 161° |
| 2026-05-08 14:54 | 23.37665 | 113.30244 | 54 ft | 13 kts | 139° |
| 2026-05-08 14:55 | 23.37618 | 113.30347 | 54 ft | 17 kts | 102° |
| 2026-05-08 14:55 | 23.37592 | 113.30469 | 51 ft | 15 kts | 103° |
| 2026-05-08 14:55 | 23.37604 | 113.30547 | 52 ft | 9 kts | 30° |
| 2026-05-08 14:55 | 23.37650 | 113.30562 | 52 ft | 0 kts | 14° |
| 2026-05-08 14:56 | 23.37746 | 113.30587 | 54 ft | 45 kts | 14° |
| 2026-05-08 14:56 | 23.38284 | 113.30732 | 53 ft | 110 kts | 14° |
| 2026-05-08 14:56 | 23.39197 | 113.30978 | 51 ft | 157 kts | 13° |
| 2026-05-08 14:57 | 23.40353 | 113.31293 | 260 ft | 177 kts | 13° |
| 2026-05-08 14:57 | 23.41538 | 113.31617 | 908 ft | 174 kts | 14° |
| 2026-05-08 14:57 | 23.42693 | 113.31962 | 1515 ft | 170 kts | 17° |
| 2026-05-08 14:57 | 23.43824 | 113.32303 | 2105 ft | 167 kts | 18° |
| 2026-05-08 14:58 | 23.44942 | 113.32636 | 2658 ft | 166 kts | 18° |
| 2026-05-08 14:58 | 23.46055 | 113.32968 | 3157 ft | 166 kts | 18° |
| 2026-05-08 14:58 | 23.47216 | 113.33317 | 3393 ft | 183 kts | 18° |
| 2026-05-08 14:58 | 23.48508 | 113.33706 | 3515 ft | 204 kts | 18° |
| 2026-05-08 14:59 | 23.49961 | 113.34144 | 3672 ft | 230 kts | 18° |
| 2026-05-08 14:59 | 23.53161 | 113.35100 | 4915 ft | 245 kts | 16° |
| 2026-05-08 14:59 | 23.54829 | 113.35595 | 5598 ft | 251 kts | 16° |
| 2026-05-08 15:00 | 23.56551 | 113.36014 | 6296 ft | 256 kts | 9° |
| 2026-05-08 15:00 | 23.58324 | 113.36343 | 6944 ft | 261 kts | 9° |
| 2026-05-08 15:00 | 23.60124 | 113.36682 | 7621 ft | 265 kts | 9° |
| 2026-05-08 15:00 | 23.61948 | 113.37031 | 8316 ft | 267 kts | 9° |
| 2026-05-08 15:01 | 23.63792 | 113.37385 | 8947 ft | 274 kts | 8° |
| 2026-05-08 15:01 | 23.65734 | 113.37754 | 9284 ft | 290 kts | 8° |
| 2026-05-08 15:01 | 23.67748 | 113.38136 | 9892 ft | 296 kts | 8° |
| 2026-05-08 15:01 | 23.69818 | 113.38531 | 10248 ft | 312 kts | 8° |
| 2026-05-08 15:02 | 23.72032 | 113.38952 | 10373 ft | 334 kts | 8° |
| 2026-05-08 15:02 | 23.74392 | 113.39402 | 10492 ft | 355 kts | 8° |
| 2026-05-08 15:02 | 23.76889 | 113.39880 | 10610 ft | 374 kts | 8° |
| 2026-05-08 15:02 | 23.79491 | 113.40378 | 10954 ft | 384 kts | 8° |
| 2026-05-08 15:03 | 23.82140 | 113.40888 | 11470 ft | 389 kts | 8° |
| 2026-05-08 15:03 | 23.84813 | 113.41404 | 12009 ft | 392 kts | 8° |
| 2026-05-08 15:03 | 23.87514 | 113.41925 | 12550 ft | 396 kts | 8° |
| 2026-05-08 15:03 | 23.90247 | 113.42451 | 13087 ft | 400 kts | 7° |
| 2026-05-08 15:04 | 23.93001 | 113.42979 | 13610 ft | 404 kts | 7° |
| 2026-05-08 15:04 | 23.95782 | 113.43513 | 14082 ft | 407 kts | 7° |
| 2026-05-08 15:04 | 23.98585 | 113.44051 | 14536 ft | 410 kts | 7° |
| 2026-05-08 15:04 | 24.01403 | 113.44591 | 14991 ft | 413 kts | 7° |
| 2026-05-08 15:05 | 24.04243 | 113.45132 | 15435 ft | 415 kts | 7° |
| 2026-05-08 15:05 | 24.07112 | 113.45524 | 15873 ft | 415 kts | 359° |
| 2026-05-08 15:05 | 24.09993 | 113.45394 | 16335 ft | 414 kts | 350° |
| 2026-05-08 15:05 | 24.12857 | 113.45006 | 16797 ft | 416 kts | 350° |
| 2026-05-08 15:06 | 24.15735 | 113.44614 | 17228 ft | 418 kts | 350° |
| 2026-05-08 15:06 | 24.18635 | 113.44218 | 17640 ft | 421 kts | 350° |
| 2026-05-08 15:06 | 24.21551 | 113.43821 | 18036 ft | 424 kts | 350° |
| 2026-05-08 15:06 | 24.24487 | 113.43424 | 18422 ft | 426 kts | 350° |
| 2026-05-08 15:07 | 24.27400 | 113.43032 | 18758 ft | 428 kts | 350° |
| 2026-05-08 15:07 | 24.30359 | 113.42636 | 19121 ft | 429 kts | 350° |
| 2026-05-08 15:07 | 24.33328 | 113.42239 | 19489 ft | 430 kts | 349° |
| 2026-05-08 15:07 | 24.36331 | 113.42060 | 19861 ft | 435 kts | 357° |
| 2026-05-08 15:08 | 24.39368 | 113.42144 | 20214 ft | 437 kts | 358° |
| 2026-05-08 15:08 | 24.41428 | 113.42203 | 20450 ft | 439 kts | 357° |
| 2026-05-08 15:08 | 24.45481 | 113.42320 | 20878 ft | 442 kts | 357° |
| 2026-05-08 15:08 | 24.48562 | 113.42409 | 21266 ft | 443 kts | 357° |
| 2026-05-08 15:09 | 24.51642 | 113.42502 | 21673 ft | 444 kts | 357° |
| 2026-05-08 15:09 | 24.54729 | 113.42596 | 22058 ft | 445 kts | 357° |
| 2026-05-08 15:09 | 24.57829 | 113.42685 | 22410 ft | 446 kts | 357° |
| 2026-05-08 15:09 | 24.60931 | 113.42772 | 22762 ft | 447 kts | 356° |
| 2026-05-08 15:10 | 24.64049 | 113.42856 | 23105 ft | 449 kts | 356° |
| 2026-05-08 15:10 | 24.66149 | 113.42912 | 23517 ft | 446 kts | 356° |
| 2026-05-08 15:10 | 24.69267 | 113.42999 | 23798 ft | 449 kts | 356° |
| 2026-05-08 15:10 | 24.72401 | 113.43088 | 24050 ft | 452 kts | 356° |
| 2026-05-08 15:11 | 24.75549 | 113.43178 | 24316 ft | 454 kts | 356° |
| 2026-05-08 15:11 | 24.78709 | 113.43266 | 24588 ft | 455 kts | 356° |
| 2026-05-08 15:11 | 24.81882 | 113.43352 | 24848 ft | 457 kts | 355° |
| 2026-05-08 15:11 | 24.85069 | 113.43439 | 25107 ft | 459 kts | 355° |
| 2026-05-08 15:12 | 24.88272 | 113.43529 | 25363 ft | 461 kts | 355° |
| 2026-05-08 15:12 | 24.91480 | 113.43620 | 25616 ft | 463 kts | 355° |
| 2026-05-08 15:12 | 24.94704 | 113.43713 | 25884 ft | 464 kts | 355° |
| 2026-05-08 15:12 | 24.97942 | 113.43806 | 26130 ft | 466 kts | 355° |
| 2026-05-08 15:13 | 25.01185 | 113.43899 | 26380 ft | 468 kts | 355° |
| 2026-05-08 15:13 | 25.04448 | 113.43993 | 26615 ft | 469 kts | 355° |
| 2026-05-08 15:13 | 25.07705 | 113.44087 | 26702 ft | 466 kts | 355° |
| 2026-05-08 15:13 | 25.10934 | 113.44184 | 26713 ft | 462 kts | 355° |
| 2026-05-08 15:14 | 25.14148 | 113.44279 | 26714 ft | 461 kts | 355° |
| 2026-05-08 15:14 | 25.17349 | 113.44372 | 26719 ft | 461 kts | 355° |
| 2026-05-08 15:14 | 25.20554 | 113.44463 | 26723 ft | 461 kts | 355° |
| 2026-05-08 15:14 | 25.23766 | 113.44552 | 26730 ft | 461 kts | 354° |
| 2026-05-08 15:15 | 25.26979 | 113.44643 | 26721 ft | 463 kts | 355° |
| 2026-05-08 15:15 | 25.30198 | 113.44737 | 26731 ft | 463 kts | 355° |
| 2026-05-08 15:15 | 25.33415 | 113.44832 | 26730 ft | 462 kts | 355° |
| 2026-05-08 15:15 | 25.36626 | 113.44926 | 26725 ft | 462 kts | 355° |
| 2026-05-08 15:16 | 25.39841 | 113.45017 | 26737 ft | 462 kts | 355° |
| 2026-05-08 15:16 | 25.43049 | 113.45108 | 26731 ft | 461 kts | 355° |
| 2026-05-08 15:16 | 25.46260 | 113.45198 | 26729 ft | 461 kts | 355° |
| 2026-05-08 15:16 | 25.49425 | 113.45288 | 26727 ft | 461 kts | 355° |
| 2026-05-08 15:17 | 25.52676 | 113.45382 | 26749 ft | 462 kts | 354° |
| 2026-05-08 15:17 | 25.55847 | 113.45474 | 26748 ft | 462 kts | 354° |
| 2026-05-08 15:17 | 25.59059 | 113.45568 | 26741 ft | 462 kts | 354° |
| 2026-05-08 15:17 | 25.62276 | 113.45662 | 26745 ft | 462 kts | 354° |
| 2026-05-08 15:18 | 25.65532 | 113.45755 | 26748 ft | 463 kts | 354° |
| 2026-05-08 15:18 | 25.68710 | 113.45845 | 26747 ft | 463 kts | 354° |
| 2026-05-08 15:18 | 25.71925 | 113.45939 | 26748 ft | 462 kts | 354° |
| 2026-05-08 15:18 | 25.75141 | 113.46032 | 26749 ft | 462 kts | 354° |
| 2026-05-08 15:19 | 25.78357 | 113.46124 | 26754 ft | 462 kts | 354° |
| 2026-05-08 15:19 | 25.81571 | 113.46217 | 26772 ft | 462 kts | 354° |
| 2026-05-08 15:19 | 25.84786 | 113.46309 | 26762 ft | 462 kts | 354° |
| 2026-05-08 15:19 | 25.88003 | 113.46384 | 26771 ft | 462 kts | 353° |
| 2026-05-08 15:20 | 25.91210 | 113.46357 | 26767 ft | 460 kts | 352° |
| 2026-05-08 15:20 | 25.94399 | 113.46240 | 26760 ft | 458 kts | 350° |
| 2026-05-08 15:20 | 25.97583 | 113.46070 | 26761 ft | 458 kts | 350° |
| 2026-05-08 15:20 | 26.00767 | 113.45885 | 26763 ft | 458 kts | 350° |
| 2026-05-08 15:21 | 26.03950 | 113.45716 | 26757 ft | 458 kts | 350° |
| 2026-05-08 15:21 | 26.07140 | 113.45570 | 26765 ft | 459 kts | 351° |
| 2026-05-08 15:21 | 26.10332 | 113.45444 | 26777 ft | 459 kts | 351° |
| 2026-05-08 15:21 | 26.13570 | 113.45325 | 26773 ft | 459 kts | 351° |
| 2026-05-08 15:22 | 26.16721 | 113.45213 | 26768 ft | 460 kts | 351° |
| 2026-05-08 15:22 | 26.19916 | 113.45101 | 26767 ft | 460 kts | 351° |
| 2026-05-08 15:22 | 26.23112 | 113.44984 | 26771 ft | 459 kts | 351° |
| 2026-05-08 15:22 | 26.26305 | 113.44862 | 26766 ft | 459 kts | 351° |
| 2026-05-08 15:23 | 26.29546 | 113.44736 | 26770 ft | 459 kts | 351° |
| 2026-05-08 15:23 | 26.32693 | 113.44612 | 26758 ft | 459 kts | 351° |
| 2026-05-08 15:23 | 26.35889 | 113.44486 | 26757 ft | 460 kts | 351° |
| 2026-05-08 15:23 | 26.39085 | 113.44362 | 26760 ft | 460 kts | 351° |
| 2026-05-08 15:24 | 26.42284 | 113.44239 | 26763 ft | 460 kts | 351° |
| 2026-05-08 15:24 | 26.45483 | 113.44117 | 26763 ft | 460 kts | 351° |
| 2026-05-08 15:24 | 26.48684 | 113.43998 | 26766 ft | 460 kts | 351° |
| 2026-05-08 15:24 | 26.51882 | 113.43879 | 26767 ft | 460 kts | 351° |
| 2026-05-08 15:25 | 26.55081 | 113.43758 | 26768 ft | 460 kts | 351° |
| 2026-05-08 15:25 | 26.58280 | 113.43636 | 26769 ft | 460 kts | 351° |
| 2026-05-08 15:25 | 26.61482 | 113.43512 | 26770 ft | 460 kts | 351° |
| 2026-05-08 15:25 | 26.64680 | 113.43388 | 26795 ft | 460 kts | 350° |
| 2026-05-08 15:26 | 26.67875 | 113.43264 | 26789 ft | 460 kts | 350° |
| 2026-05-08 15:26 | 26.71072 | 113.43143 | 26786 ft | 460 kts | 350° |
| 2026-05-08 15:26 | 26.74268 | 113.43020 | 26782 ft | 459 kts | 350° |
| 2026-05-08 15:26 | 26.77461 | 113.42897 | 26789 ft | 458 kts | 350° |
| 2026-05-08 15:27 | 26.80644 | 113.42775 | 26798 ft | 457 kts | 350° |
| 2026-05-08 15:27 | 26.83827 | 113.42654 | 26785 ft | 458 kts | 350° |
| 2026-05-08 15:27 | 26.87010 | 113.42534 | 26777 ft | 458 kts | 350° |
| 2026-05-08 15:27 | 26.90197 | 113.42414 | 26771 ft | 459 kts | 350° |
| 2026-05-08 15:28 | 26.93390 | 113.42293 | 26781 ft | 459 kts | 350° |
| 2026-05-08 15:28 | 26.96579 | 113.42167 | 26773 ft | 459 kts | 350° |
| 2026-05-08 15:28 | 26.99772 | 113.42038 | 26772 ft | 459 kts | 350° |
| 2026-05-08 15:28 | 27.02965 | 113.41909 | 26769 ft | 459 kts | 350° |
| 2026-05-08 15:29 | 27.06160 | 113.41781 | 26765 ft | 460 kts | 350° |
| 2026-05-08 15:29 | 27.09357 | 113.41657 | 26767 ft | 460 kts | 350° |
| 2026-05-08 15:29 | 27.12555 | 113.41535 | 26766 ft | 460 kts | 350° |
| 2026-05-08 15:29 | 27.15753 | 113.41414 | 26770 ft | 460 kts | 350° |
| 2026-05-08 15:30 | 27.18954 | 113.41293 | 26771 ft | 460 kts | 350° |
| 2026-05-08 15:30 | 27.22152 | 113.41172 | 26796 ft | 460 kts | 350° |
| 2026-05-08 15:30 | 27.25349 | 113.41050 | 26797 ft | 460 kts | 350° |
| 2026-05-08 15:30 | 27.28551 | 113.40927 | 26786 ft | 460 kts | 350° |
| 2026-05-08 15:31 | 27.31750 | 113.40801 | 26785 ft | 460 kts | 350° |
| 2026-05-08 15:31 | 27.34956 | 113.40710 | 26777 ft | 462 kts | 351° |
| 2026-05-08 15:31 | 27.38173 | 113.40716 | 26777 ft | 464 kts | 353° |
| 2026-05-08 15:31 | 27.41404 | 113.40796 | 26772 ft | 464 kts | 353° |
| 2026-05-08 15:32 | 27.44634 | 113.40910 | 26773 ft | 465 kts | 354° |
| 2026-05-08 15:32 | 27.47863 | 113.41028 | 26794 ft | 464 kts | 353° |
| 2026-05-08 15:32 | 27.51094 | 113.41126 | 26786 ft | 464 kts | 353° |
| 2026-05-08 15:32 | 27.54324 | 113.41202 | 26780 ft | 464 kts | 353° |
| 2026-05-08 15:33 | 27.57552 | 113.41263 | 26776 ft | 464 kts | 352° |
| 2026-05-08 15:33 | 27.60777 | 113.41317 | 26775 ft | 464 kts | 352° |
| 2026-05-08 15:33 | 27.64005 | 113.41371 | 26772 ft | 464 kts | 353° |
| 2026-05-08 15:33 | 27.67238 | 113.41465 | 26770 ft | 466 kts | 354° |
| 2026-05-08 15:34 | 27.70481 | 113.41676 | 26769 ft | 468 kts | 356° |
| 2026-05-08 15:34 | 27.73730 | 113.41977 | 26767 ft | 469 kts | 357° |
| 2026-05-08 15:34 | 27.76982 | 113.42322 | 26789 ft | 470 kts | 357° |
| 2026-05-08 15:34 | 27.80236 | 113.42672 | 26778 ft | 470 kts | 357° |
| 2026-05-08 15:35 | 27.83490 | 113.43004 | 26759 ft | 469 kts | 357° |
| 2026-05-08 15:35 | 27.86742 | 113.43316 | 26759 ft | 469 kts | 356° |
| 2026-05-08 15:35 | 27.89996 | 113.43608 | 26759 ft | 469 kts | 356° |
| 2026-05-08 15:35 | 27.93248 | 113.43886 | 26759 ft | 469 kts | 356° |
| 2026-05-08 15:36 | 27.96501 | 113.44159 | 26765 ft | 468 kts | 356° |
| 2026-05-08 15:36 | 27.98650 | 113.44340 | 26764 ft | 468 kts | 356° |
| 2026-05-08 15:36 | 28.03002 | 113.44706 | 26787 ft | 469 kts | 356° |
| 2026-05-08 15:36 | 28.06253 | 113.44988 | 26779 ft | 469 kts | 356° |
| 2026-05-08 15:37 | 28.09502 | 113.45275 | 26774 ft | 469 kts | 356° |
| 2026-05-08 15:37 | 28.12757 | 113.45545 | 26771 ft | 469 kts | 356° |
| 2026-05-08 15:37 | 28.16007 | 113.45784 | 26766 ft | 468 kts | 355° |
| 2026-05-08 15:37 | 28.19261 | 113.46005 | 26763 ft | 469 kts | 355° |
| 2026-05-08 15:38 | 28.22521 | 113.46220 | 26765 ft | 469 kts | 355° |
| 2026-05-08 15:38 | 28.25779 | 113.46439 | 26765 ft | 469 kts | 355° |
| 2026-05-08 15:38 | 28.29038 | 113.46665 | 26791 ft | 469 kts | 355° |
| 2026-05-08 15:38 | 28.32293 | 113.46898 | 26788 ft | 469 kts | 355° |
| 2026-05-08 15:39 | 28.35549 | 113.47136 | 26787 ft | 469 kts | 355° |
| 2026-05-08 15:39 | 28.38805 | 113.47375 | 26785 ft | 469 kts | 355° |
| 2026-05-08 15:39 | 28.42063 | 113.47614 | 26783 ft | 469 kts | 355° |
| 2026-05-08 15:39 | 28.45321 | 113.47848 | 26781 ft | 469 kts | 355° |
| 2026-05-08 15:40 | 28.48580 | 113.48079 | 26782 ft | 469 kts | 355° |
| 2026-05-08 15:40 | 28.51839 | 113.48307 | 26779 ft | 469 kts | 355° |
| 2026-05-08 15:40 | 28.55055 | 113.48533 | 26782 ft | 469 kts | 355° |
| 2026-05-08 15:40 | 28.58313 | 113.48766 | 26802 ft | 469 kts | 355° |
| 2026-05-08 15:41 | 28.61571 | 113.49000 | 26801 ft | 469 kts | 355° |
| 2026-05-08 15:41 | 28.64832 | 113.49236 | 26798 ft | 469 kts | 355° |
| 2026-05-08 15:41 | 28.68088 | 113.49472 | 26796 ft | 469 kts | 355° |
| 2026-05-08 15:41 | 28.71349 | 113.49704 | 26793 ft | 469 kts | 355° |
| 2026-05-08 15:42 | 28.74609 | 113.49931 | 26792 ft | 469 kts | 355° |
| 2026-05-08 15:42 | 28.77867 | 113.50159 | 26789 ft | 470 kts | 355° |
| 2026-05-08 15:42 | 28.81127 | 113.50390 | 26790 ft | 470 kts | 355° |
| 2026-05-08 15:42 | 28.84389 | 113.50625 | 26810 ft | 470 kts | 355° |
| 2026-05-08 15:43 | 28.87652 | 113.50863 | 26806 ft | 469 kts | 355° |
| 2026-05-08 15:43 | 28.90909 | 113.51102 | 26803 ft | 469 kts | 355° |
| 2026-05-08 15:43 | 28.94164 | 113.51341 | 26799 ft | 468 kts | 355° |
| 2026-05-08 15:43 | 28.97415 | 113.51579 | 26793 ft | 468 kts | 355° |
| 2026-05-08 15:44 | 29.00663 | 113.51814 | 26793 ft | 468 kts | 355° |
| 2026-05-08 15:44 | 29.03918 | 113.52050 | 26787 ft | 468 kts | 355° |
| 2026-05-08 15:44 | 29.07174 | 113.52285 | 26786 ft | 469 kts | 355° |
| 2026-05-08 15:44 | 29.10426 | 113.52521 | 26788 ft | 469 kts | 355° |
| 2026-05-08 15:45 | 29.13677 | 113.52754 | 26786 ft | 468 kts | 355° |
| 2026-05-08 15:45 | 29.16931 | 113.52985 | 26785 ft | 468 kts | 355° |
| 2026-05-08 15:45 | 29.20184 | 113.53216 | 26784 ft | 468 kts | 355° |
| 2026-05-08 15:45 | 29.23439 | 113.53453 | 26784 ft | 468 kts | 355° |
| 2026-05-08 15:46 | 29.26688 | 113.53692 | 26776 ft | 468 kts | 355° |
| 2026-05-08 15:46 | 29.29938 | 113.53933 | 26763 ft | 468 kts | 356° |
| 2026-05-08 15:46 | 29.33186 | 113.54196 | 26770 ft | 468 kts | 356° |
| 2026-05-08 15:46 | 29.36436 | 113.54480 | 26800 ft | 469 kts | 356° |
| 2026-05-08 15:47 | 29.39694 | 113.54773 | 26568 ft | 470 kts | 356° |
| 2026-05-08 15:47 | 29.42948 | 113.55064 | 26087 ft | 469 kts | 357° |
| 2026-05-08 15:47 | 29.46203 | 113.55352 | 25618 ft | 469 kts | 357° |
| 2026-05-08 15:47 | 29.49461 | 113.55640 | 25161 ft | 471 kts | 357° |
| 2026-05-08 15:48 | 29.56005 | 113.56211 | 24263 ft | 473 kts | 358° |
| 2026-05-08 15:48 | 29.59287 | 113.56495 | 23825 ft | 474 kts | 358° |
| 2026-05-08 15:48 | 29.62577 | 113.56778 | 23338 ft | 475 kts | 358° |
| 2026-05-08 15:49 | 29.65885 | 113.57062 | 22816 ft | 477 kts | 358° |
| 2026-05-08 15:49 | 29.69199 | 113.57349 | 22305 ft | 476 kts | 359° |
| 2026-05-08 15:49 | 29.72492 | 113.57637 | 21789 ft | 473 kts | 359° |
| 2026-05-08 15:49 | 29.75761 | 113.57927 | 21312 ft | 469 kts | 359° |
| 2026-05-08 15:50 | 29.78999 | 113.58214 | 20821 ft | 465 kts | 359° |
| 2026-05-08 15:50 | 29.82211 | 113.58496 | 20344 ft | 461 kts | 359° |
| 2026-05-08 15:50 | 29.85399 | 113.58777 | 19873 ft | 457 kts | 359° |
| 2026-05-08 15:50 | 29.88559 | 113.59054 | 19421 ft | 454 kts | 359° |
| 2026-05-08 15:51 | 29.91696 | 113.59338 | 19010 ft | 452 kts | 1° |
| 2026-05-08 15:51 | 29.94800 | 113.59996 | 18835 ft | 457 kts | 10° |
| 2026-05-08 15:51 | 29.97815 | 113.61213 | 18872 ft | 463 kts | 18° |
| 2026-05-08 15:51 | 30.00779 | 113.62687 | 18862 ft | 463 kts | 18° |
| 2026-05-08 15:52 | 30.03735 | 113.64159 | 18866 ft | 463 kts | 18° |
| 2026-05-08 15:52 | 30.06638 | 113.65805 | 18866 ft | 468 kts | 26° |
| 2026-05-08 15:52 | 30.08446 | 113.67175 | 18868 ft | 472 kts | 32° |
| 2026-05-08 15:52 | 30.10978 | 113.69617 | 18870 ft | 475 kts | 37° |
| 2026-05-08 15:53 | 30.13459 | 113.72127 | 18865 ft | 474 kts | 37° |
| 2026-05-08 15:53 | 30.15942 | 113.74633 | 18869 ft | 474 kts | 37° |
| 2026-05-08 15:53 | 30.18420 | 113.77134 | 18820 ft | 472 kts | 37° |
| 2026-05-08 15:53 | 30.20870 | 113.79611 | 18218 ft | 465 kts | 37° |
| 2026-05-08 15:54 | 30.23292 | 113.82053 | 17506 ft | 459 kts | 37° |
| 2026-05-08 15:54 | 30.25685 | 113.84469 | 16830 ft | 453 kts | 38° |
| 2026-05-08 15:54 | 30.28044 | 113.86852 | 16180 ft | 447 kts | 38° |
| 2026-05-08 15:54 | 30.30366 | 113.89203 | 15535 ft | 440 kts | 38° |
| 2026-05-08 15:55 | 30.32645 | 113.91530 | 14908 ft | 434 kts | 39° |
| 2026-05-08 15:55 | 30.37109 | 113.96069 | 13738 ft | 420 kts | 40° |
| 2026-05-08 15:55 | 30.39294 | 113.98278 | 13057 ft | 414 kts | 40° |
| 2026-05-08 15:56 | 30.41450 | 114.00457 | 12374 ft | 409 kts | 40° |
| 2026-05-08 15:56 | 30.43562 | 114.02598 | 12045 ft | 395 kts | 40° |
| 2026-05-08 15:56 | 30.45582 | 114.04650 | 11936 ft | 377 kts | 40° |
| 2026-05-08 15:56 | 30.47500 | 114.06603 | 11959 ft | 357 kts | 40° |
| 2026-05-08 15:57 | 30.49317 | 114.08451 | 11958 ft | 338 kts | 40° |
| 2026-05-08 15:57 | 30.51041 | 114.10204 | 11958 ft | 321 kts | 40° |
| 2026-05-08 15:57 | 30.52680 | 114.11874 | 11959 ft | 308 kts | 40° |
| 2026-05-08 15:57 | 30.54279 | 114.13503 | 11960 ft | 305 kts | 40° |
| 2026-05-08 15:58 | 30.55868 | 114.15122 | 11963 ft | 303 kts | 40° |
| 2026-05-08 15:58 | 30.57452 | 114.16736 | 11962 ft | 302 kts | 40° |
| 2026-05-08 15:58 | 30.59030 | 114.18347 | 11961 ft | 302 kts | 40° |
| 2026-05-08 15:58 | 30.60612 | 114.19965 | 11720 ft | 304 kts | 40° |
| 2026-05-08 15:59 | 30.62191 | 114.21578 | 11356 ft | 301 kts | 41° |
| 2026-05-08 15:59 | 30.63761 | 114.23177 | 10998 ft | 299 kts | 41° |
| 2026-05-08 15:59 | 30.65321 | 114.24770 | 10638 ft | 298 kts | 41° |
| 2026-05-08 15:59 | 30.66872 | 114.26356 | 10286 ft | 296 kts | 41° |
| 2026-05-08 16:00 | 30.68413 | 114.27935 | 9913 ft | 295 kts | 42° |
| 2026-05-08 16:00 | 30.69945 | 114.29509 | 9528 ft | 293 kts | 42° |
| 2026-05-08 16:00 | 30.71469 | 114.31072 | 9144 ft | 291 kts | 41° |
| 2026-05-08 16:00 | 30.72982 | 114.32621 | 8762 ft | 289 kts | 41° |
| 2026-05-08 16:01 | 30.74484 | 114.34160 | 8390 ft | 287 kts | 41° |
| 2026-05-08 16:01 | 30.75977 | 114.35689 | 8017 ft | 285 kts | 41° |
| 2026-05-08 16:01 | 30.77459 | 114.37207 | 7647 ft | 283 kts | 41° |
| 2026-05-08 16:01 | 30.78933 | 114.38717 | 7276 ft | 282 kts | 41° |
| 2026-05-08 16:02 | 30.80400 | 114.40222 | 6922 ft | 280 kts | 41° |
| 2026-05-08 16:02 | 30.81858 | 114.41717 | 6560 ft | 279 kts | 41° |
| 2026-05-08 16:02 | 30.83308 | 114.43207 | 6178 ft | 277 kts | 41° |
| 2026-05-08 16:02 | 30.84751 | 114.44691 | 5805 ft | 276 kts | 41° |
| 2026-05-08 16:03 | 30.86186 | 114.46166 | 5414 ft | 274 kts | 42° |
| 2026-05-08 16:03 | 30.87607 | 114.47631 | 5048 ft | 272 kts | 42° |
| 2026-05-08 16:03 | 30.89017 | 114.49086 | 4671 ft | 270 kts | 42° |
| 2026-05-08 16:03 | 30.90418 | 114.50533 | 4291 ft | 268 kts | 42° |
| 2026-05-08 16:04 | 30.91809 | 114.51972 | 3913 ft | 267 kts | 42° |
| 2026-05-08 16:04 | 30.93193 | 114.53401 | 3539 ft | 265 kts | 42° |
| 2026-05-08 16:04 | 30.94571 | 114.54818 | 3169 ft | 264 kts | 41° |
| 2026-05-08 16:04 | 30.95930 | 114.56214 | 2988 ft | 255 kts | 41° |
| 2026-05-08 16:05 | 30.97219 | 114.57539 | 2994 ft | 240 kts | 42° |
| 2026-05-08 16:05 | 30.98453 | 114.58811 | 2999 ft | 235 kts | 41° |
| 2026-05-08 16:05 | 30.99675 | 114.60068 | 3000 ft | 234 kts | 41° |
| 2026-05-08 16:05 | 31.00896 | 114.61324 | 3000 ft | 234 kts | 41° |
| 2026-05-08 16:06 | 31.02116 | 114.62579 | 3000 ft | 234 kts | 41° |
| 2026-05-08 16:06 | 31.03338 | 114.63835 | 3000 ft | 234 kts | 41° |
| 2026-05-08 16:06 | 31.04558 | 114.65090 | 3001 ft | 234 kts | 41° |
| 2026-05-08 16:06 | 31.05778 | 114.66344 | 3016 ft | 234 kts | 41° |
| 2026-05-08 16:07 | 31.06996 | 114.67596 | 2999 ft | 234 kts | 41° |
| 2026-05-08 16:07 | 31.08216 | 114.68850 | 2999 ft | 234 kts | 41° |
| 2026-05-08 16:07 | 31.09434 | 114.70101 | 2999 ft | 234 kts | 41° |
| 2026-05-08 16:07 | 31.10654 | 114.71353 | 3002 ft | 234 kts | 41° |
| 2026-05-08 16:08 | 31.11873 | 114.72606 | 3001 ft | 233 kts | 41° |
| 2026-05-08 16:08 | 31.13093 | 114.73858 | 3002 ft | 233 kts | 41° |
| 2026-05-08 16:08 | 31.14312 | 114.75111 | 3002 ft | 233 kts | 41° |
| 2026-05-08 16:08 | 31.15530 | 114.76363 | 3002 ft | 234 kts | 41° |
| 2026-05-08 16:09 | 31.16750 | 114.77617 | 3006 ft | 234 kts | 41° |
| 2026-05-08 16:09 | 31.17970 | 114.78871 | 3006 ft | 234 kts | 41° |
| 2026-05-08 16:09 | 31.19189 | 114.80124 | 3005 ft | 234 kts | 41° |
| 2026-05-08 16:09 | 31.20418 | 114.81384 | 3005 ft | 235 kts | 41° |
| 2026-05-08 16:10 | 31.21653 | 114.82634 | 3005 ft | 235 kts | 38° |
| 2026-05-08 16:10 | 31.23100 | 114.83456 | 2999 ft | 228 kts | 12° |
| 2026-05-08 16:10 | 31.24647 | 114.83438 | 3002 ft | 222 kts | 345° |
| 2026-05-08 16:10 | 31.25999 | 114.82636 | 3005 ft | 218 kts | 318° |
| 2026-05-08 16:11 | 31.26905 | 114.81246 | 3005 ft | 216 kts | 292° |
| 2026-05-08 16:11 | 31.27219 | 114.79555 | 3006 ft | 214 kts | 268° |
| 2026-05-08 16:11 | 31.26891 | 114.77884 | 3005 ft | 212 kts | 243° |
| 2026-05-08 16:11 | 31.26012 | 114.76517 | 3004 ft | 211 kts | 225° |
| 2026-05-08 16:12 | 31.24997 | 114.75273 | 3002 ft | 211 kts | 226° |
| 2026-05-08 16:12 | 31.23986 | 114.74025 | 3003 ft | 211 kts | 226° |
| 2026-05-08 16:12 | 31.22976 | 114.72776 | 3002 ft | 211 kts | 226° |
| 2026-05-08 16:12 | 31.21967 | 114.71528 | 3002 ft | 211 kts | 226° |
| 2026-05-08 16:13 | 31.20957 | 114.70278 | 3005 ft | 211 kts | 226° |
| 2026-05-08 16:13 | 31.19944 | 114.69025 | 3000 ft | 212 kts | 226° |
| 2026-05-08 16:13 | 31.18931 | 114.67770 | 3002 ft | 212 kts | 226° |
| 2026-05-08 16:13 | 31.17919 | 114.66513 | 3002 ft | 212 kts | 226° |
| 2026-05-08 16:14 | 31.16906 | 114.65256 | 2999 ft | 212 kts | 226° |
| 2026-05-08 16:14 | 31.15890 | 114.64001 | 2999 ft | 213 kts | 226° |
| 2026-05-08 16:14 | 31.14875 | 114.62748 | 3000 ft | 212 kts | 226° |
| 2026-05-08 16:14 | 31.13861 | 114.61495 | 3000 ft | 212 kts | 226° |
| 2026-05-08 16:15 | 31.12846 | 114.60241 | 3001 ft | 212 kts | 226° |
| 2026-05-08 16:15 | 31.11830 | 114.58988 | 2999 ft | 212 kts | 226° |
| 2026-05-08 16:15 | 31.10815 | 114.57734 | 2999 ft | 212 kts | 226° |
| 2026-05-08 16:15 | 31.09799 | 114.56483 | 3000 ft | 212 kts | 226° |
| 2026-05-08 16:16 | 31.08785 | 114.55234 | 2999 ft | 212 kts | 226° |
| 2026-05-08 16:16 | 31.07762 | 114.53991 | 2999 ft | 213 kts | 224° |
| 2026-05-08 16:16 | 31.06668 | 114.52834 | 2999 ft | 213 kts | 221° |
| 2026-05-08 16:16 | 31.05569 | 114.51711 | 3000 ft | 213 kts | 221° |
| 2026-05-08 16:17 | 31.04443 | 114.50556 | 3000 ft | 213 kts | 221° |
| 2026-05-08 16:17 | 31.03710 | 114.49800 | 2997 ft | 213 kts | 221° |
| 2026-05-08 16:17 | 31.02241 | 114.48285 | 2997 ft | 213 kts | 221° |
| 2026-05-08 16:17 | 31.01132 | 114.47141 | 2997 ft | 213 kts | 221° |
| 2026-05-08 16:18 | 31.00023 | 114.45998 | 2997 ft | 213 kts | 221° |
| 2026-05-08 16:18 | 30.98917 | 114.44858 | 2997 ft | 212 kts | 221° |
| 2026-05-08 16:18 | 30.97812 | 114.43719 | 2997 ft | 213 kts | 221° |
| 2026-05-08 16:18 | 30.96709 | 114.42583 | 2997 ft | 211 kts | 221° |
| 2026-05-08 16:19 | 30.95610 | 114.41452 | 3000 ft | 211 kts | 221° |
| 2026-05-08 16:19 | 30.94512 | 114.40322 | 2998 ft | 211 kts | 221° |
| 2026-05-08 16:19 | 30.93414 | 114.39192 | 2999 ft | 212 kts | 221° |
| 2026-05-08 16:19 | 30.92307 | 114.38054 | 2998 ft | 213 kts | 221° |
| 2026-05-08 16:20 | 30.91209 | 114.36925 | 3001 ft | 202 kts | 221° |
| 2026-05-08 16:20 | 30.90189 | 114.35876 | 3024 ft | 192 kts | 221° |
| 2026-05-08 16:20 | 30.89198 | 114.34858 | 2904 ft | 188 kts | 221° |
| 2026-05-08 16:20 | 30.88222 | 114.33855 | 2695 ft | 186 kts | 221° |
| 2026-05-08 16:21 | 30.87256 | 114.32863 | 2464 ft | 183 kts | 221° |
| 2026-05-08 16:21 | 30.86336 | 114.31918 | 2221 ft | 171 kts | 221° |
| 2026-05-08 16:21 | 30.85466 | 114.31025 | 2036 ft | 164 kts | 221° |
| 2026-05-08 16:21 | 30.84651 | 114.30188 | 1798 ft | 148 kts | 222° |
| 2026-05-08 16:22 | 30.83895 | 114.29413 | 1615 ft | 142 kts | 221° |
| 2026-05-08 16:22 | 30.83162 | 114.28662 | 1419 ft | 139 kts | 221° |
| 2026-05-08 16:22 | 30.82438 | 114.27919 | 1236 ft | 138 kts | 222° |
| 2026-05-08 16:22 | 30.81719 | 114.27183 | 1063 ft | 137 kts | 221° |
| 2026-05-08 16:23 | 30.80995 | 114.26454 | 873 ft | 138 kts | 221° |
| 2026-05-08 16:23 | 30.80271 | 114.25718 | 686 ft | 139 kts | 221° |
| 2026-05-08 16:23 | 30.79542 | 114.24977 | 517 ft | 139 kts | 222° |
| 2026-05-08 16:23 | 30.78818 | 114.24222 | 347 ft | 140 kts | 221° |
| 2026-05-08 16:24 | 30.78089 | 114.23473 | 161 ft | 139 kts | 221° |
| 2026-05-08 16:24 | 30.77420 | 114.22787 | 136 ft | 106 kts | 220° |
| 2026-05-08 16:24 | 30.77010 | 114.22369 | 134 ft | 53 kts | 221° |
| 2026-05-08 16:24 | 30.76836 | 114.22184 | 135 ft | 25 kts | 231° |
| 2026-05-08 16:25 | 30.76752 | 114.22013 | 136 ft | 23 kts | 245° |
| 2026-05-08 16:25 | 30.76735 | 114.21879 | 133 ft | 15 kts | 256° |
| 2026-05-08 16:25 | 30.76722 | 114.21766 | 132 ft | 14 kts | 295° |
| 2026-05-08 16:25 | 30.76789 | 114.21679 | 131 ft | 14 kts | 314° |
| 2026-05-08 16:26 | 30.76855 | 114.21597 | 129 ft | 10 kts | 313° |
| 2026-05-08 16:26 | 30.76901 | 114.21569 | 128 ft | 7 kts | 9° |
| 2026-05-08 16:26 | 30.76939 | 114.21598 | 126 ft | 6 kts | 39° |
| 2026-05-08 16:26 | 30.76954 | 114.21612 | 128 ft | 0 kts | 39° |
| 2026-05-08 16:27 | 30.76956 | 114.21615 | 128 ft | 0 kts | 41° |
| 2026-05-08 16:27 | 30.76957 | 114.21616 | 128 ft | 0 kts | 41° |